sensor_id;sensor_type;location;lat;lon;timestamp;temperature;humidity
70676;DHT22;59069;52.242;20.900;2022-11-20T00:01:43;-3.34;71.62
70676;DHT22;59069;52.242;20.900;2022-11-20T00:04:10;-3.41;71.62
70676;DHT22;59069;52.242;20.900;2022-11-20T00:06:36;-3.44;71.80
70676;DHT22;59069;52.242;20.900;2022-11-20T00:09:02;-3.48;71.93
70676;DHT22;59069;52.242;20.900;2022-11-20T00:11:29;-3.54;72.11
70676;DHT22;59069;52.242;20.900;2022-11-20T00:13:57;-3.55;72.39
70676;DHT22;59069;52.242;20.900;2022-11-20T00:16:24;-3.58;72.53
70676;DHT22;59069;52.242;20.900;2022-11-20T00:18:50;-3.58;72.85
70676;DHT22;59069;52.242;20.900;2022-11-20T00:21:17;-3.55;73.11
70676;DHT22;59069;52.242;20.900;2022-11-20T00:23:43;-3.54;73.14
70676;DHT22;59069;52.242;20.900;2022-11-20T00:26:11;-3.55;73.13
70676;DHT22;59069;52.242;20.900;2022-11-20T00:28:37;-3.54;73.21
70676;DHT22;59069;52.242;20.900;2022-11-20T00:31:13;-3.51;73.10
70676;DHT22;59069;52.242;20.900;2022-11-20T00:33:40;-3.52;73.27
70676;DHT22;59069;52.242;20.900;2022-11-20T00:36:17;-3.50;73.24
70676;DHT22;59069;52.242;20.900;2022-11-20T00:38:43;-3.48;73.36
70676;DHT22;59069;52.242;20.900;2022-11-20T00:41:14;-3.47;73.22
70676;DHT22;59069;52.242;20.900;2022-11-20T00:43:40;-3.45;73.28
70676;DHT22;59069;52.242;20.900;2022-11-20T00:46:07;-3.41;73.28
70676;DHT22;59069;52.242;20.900;2022-11-20T00:48:33;-3.40;73.13
70676;DHT22;59069;52.242;20.900;2022-11-20T00:50:59;-3.38;73.21
70676;DHT22;59069;52.242;20.900;2022-11-20T00:53:24;-3.37;73.29
70676;DHT22;59069;52.242;20.900;2022-11-20T00:58:23;-3.35;73.17
70676;DHT22;59069;52.242;20.900;2022-11-20T01:00:49;-3.35;73.17
70676;DHT22;59069;52.242;20.900;2022-11-20T01:03:16;-3.38;73.28
70676;DHT22;59069;52.242;20.900;2022-11-20T01:05:41;-3.37;73.30
70676;DHT22;59069;52.242;20.900;2022-11-20T01:08:07;-3.37;73.17
70676;DHT22;59069;52.242;20.900;2022-11-20T01:10:33;-3.34;73.02
70676;DHT22;59069;52.242;20.900;2022-11-20T01:12:58;-3.35;73.05
70676;DHT22;59069;52.242;20.900;2022-11-20T01:15:42;-3.34;73.19
70676;DHT22;59069;52.242;20.900;2022-11-20T01:18:08;-3.34;73.31
70676;DHT22;59069;52.242;20.900;2022-11-20T01:20:36;-3.28;73.33
70676;DHT22;59069;52.242;20.900;2022-11-20T01:23:03;-3.25;73.24
70676;DHT22;59069;52.242;20.900;2022-11-20T01:25:28;-3.30;73.33
70676;DHT22;59069;52.242;20.900;2022-11-20T01:27:54;-3.25;73.38
70676;DHT22;59069;52.242;20.900;2022-11-20T01:30:19;-3.27;73.21
70676;DHT22;59069;52.242;20.900;2022-11-20T01:32:45;-3.27;73.01
70676;DHT22;59069;52.242;20.900;2022-11-20T01:35:10;-3.28;73.02
70676;DHT22;59069;52.242;20.900;2022-11-20T01:37:36;-3.31;73.01
70676;DHT22;59069;52.242;20.900;2022-11-20T01:40:01;-3.28;73.03
70676;DHT22;59069;52.242;20.900;2022-11-20T01:42:27;-3.31;73.20
70676;DHT22;59069;52.242;20.900;2022-11-20T01:48:09;-3.25;72.96
70676;DHT22;59069;52.242;20.900;2022-11-20T01:50:35;-3.24;73.01
70676;DHT22;59069;52.242;20.900;2022-11-20T01:53:06;-3.24;72.67
70676;DHT22;59069;52.242;20.900;2022-11-20T01:55:36;-3.23;72.75
70676;DHT22;59069;52.242;20.900;2022-11-20T01:58:04;-3.25;72.46
70676;DHT22;59069;52.242;20.900;2022-11-20T02:00:30;-3.28;72.53
70676;DHT22;59069;52.242;20.900;2022-11-20T02:03:03;-3.30;72.60
70676;DHT22;59069;52.242;20.900;2022-11-20T02:07:59;-3.31;72.73
70676;DHT22;59069;52.242;20.900;2022-11-20T02:10:27;-3.30;72.76
70676;DHT22;59069;52.242;20.900;2022-11-20T02:12:53;-3.28;72.84
70676;DHT22;59069;52.242;20.900;2022-11-20T02:15:38;-3.30;72.75
70676;DHT22;59069;52.242;20.900;2022-11-20T02:18:04;-3.32;72.80
70676;DHT22;59069;52.242;20.900;2022-11-20T02:20:30;-3.34;72.89
70676;DHT22;59069;52.242;20.900;2022-11-20T02:23:02;-3.32;72.79
70676;DHT22;59069;52.242;20.900;2022-11-20T02:25:30;-3.35;73.06
70676;DHT22;59069;52.242;20.900;2022-11-20T02:27:56;-3.38;73.15
70676;DHT22;59069;52.242;20.900;2022-11-20T02:30:22;-3.38;73.37
70676;DHT22;59069;52.242;20.900;2022-11-20T02:32:47;-3.37;73.51
70676;DHT22;59069;52.242;20.900;2022-11-20T02:37:47;-3.40;73.62
70676;DHT22;59069;52.242;20.900;2022-11-20T02:40:13;-3.37;73.60
70676;DHT22;59069;52.242;20.900;2022-11-20T02:42:39;-3.40;73.85
70676;DHT22;59069;52.242;20.900;2022-11-20T02:45:05;-3.38;74.11
70676;DHT22;59069;52.242;20.900;2022-11-20T02:47:31;-3.40;74.14
70676;DHT22;59069;52.242;20.900;2022-11-20T02:49:57;-3.37;74.01
70676;DHT22;59069;52.242;20.900;2022-11-20T02:52:23;-3.38;74.05
70676;DHT22;59069;52.242;20.900;2022-11-20T02:54:49;-3.41;74.02
70676;DHT22;59069;52.242;20.900;2022-11-20T02:57:14;-3.42;74.07
70676;DHT22;59069;52.242;20.900;2022-11-20T02:59:40;-3.45;74.04
70676;DHT22;59069;52.242;20.900;2022-11-20T03:02:05;-3.48;74.23
70676;DHT22;59069;52.242;20.900;2022-11-20T03:04:31;-3.50;74.34
70676;DHT22;59069;52.242;20.900;2022-11-20T03:06:56;-3.50;74.51
70676;DHT22;59069;52.242;20.900;2022-11-20T03:09:22;-3.52;74.74
70676;DHT22;59069;52.242;20.900;2022-11-20T03:11:47;-3.54;74.93
70676;DHT22;59069;52.242;20.900;2022-11-20T03:14:13;-3.58;75.02
70676;DHT22;59069;52.242;20.900;2022-11-20T03:16:39;-3.56;75.21
70676;DHT22;59069;52.242;20.900;2022-11-20T03:19:04;-3.56;75.43
70676;DHT22;59069;52.242;20.900;2022-11-20T03:21:30;-3.56;75.40
70676;DHT22;59069;52.242;20.900;2022-11-20T03:23:55;-3.61;75.50
70676;DHT22;59069;52.242;20.900;2022-11-20T03:26:23;-3.62;75.77
70676;DHT22;59069;52.242;20.900;2022-11-20T03:28:51;-3.66;76.07
70676;DHT22;59069;52.242;20.900;2022-11-20T03:31:19;-3.66;76.17
70676;DHT22;59069;52.242;20.900;2022-11-20T03:33:45;-3.65;76.22
70676;DHT22;59069;52.242;20.900;2022-11-20T03:36:12;-3.62;76.27
70676;DHT22;59069;52.242;20.900;2022-11-20T03:38:38;-3.64;76.22
70676;DHT22;59069;52.242;20.900;2022-11-20T03:41:07;-3.65;76.16
70676;DHT22;59069;52.242;20.900;2022-11-20T03:43:33;-3.64;76.14
70676;DHT22;59069;52.242;20.900;2022-11-20T03:45:59;-3.69;76.17
70676;DHT22;59069;52.242;20.900;2022-11-20T03:48:25;-3.71;76.33
70676;DHT22;59069;52.242;20.900;2022-11-20T03:50:51;-3.72;76.42
70676;DHT22;59069;52.242;20.900;2022-11-20T03:53:19;-3.71;76.41
70676;DHT22;59069;52.242;20.900;2022-11-20T03:55:50;-3.73;76.49
70676;DHT22;59069;52.242;20.900;2022-11-20T03:58:15;-3.78;76.70
70676;DHT22;59069;52.242;20.900;2022-11-20T04:00:41;-3.76;76.80
70676;DHT22;59069;52.242;20.900;2022-11-20T04:03:06;-3.82;76.88
70676;DHT22;59069;52.242;20.900;2022-11-20T04:05:33;-3.82;77.02
70676;DHT22;59069;52.242;20.900;2022-11-20T04:07:59;-3.79;77.11
70676;DHT22;59069;52.242;20.900;2022-11-20T04:10:24;-3.82;77.13
70676;DHT22;59069;52.242;20.900;2022-11-20T04:12:49;-3.85;77.14
70676;DHT22;59069;52.242;20.900;2022-11-20T04:15:15;-3.85;77.22
70676;DHT22;59069;52.242;20.900;2022-11-20T04:17:40;-3.85;77.33
70676;DHT22;59069;52.242;20.900;2022-11-20T04:20:06;-3.89;77.44
70676;DHT22;59069;52.242;20.900;2022-11-20T04:22:32;-3.92;77.58
70676;DHT22;59069;52.242;20.900;2022-11-20T04:24:57;-3.90;77.70
70676;DHT22;59069;52.242;20.900;2022-11-20T04:27:23;-3.92;77.71
70676;DHT22;59069;52.242;20.900;2022-11-20T04:29:48;-3.93;77.90
70676;DHT22;59069;52.242;20.900;2022-11-20T04:32:13;-3.93;77.89
70676;DHT22;59069;52.242;20.900;2022-11-20T04:34:39;-3.95;78.11
70676;DHT22;59069;52.242;20.900;2022-11-20T04:37:04;-3.95;78.22
70676;DHT22;59069;52.242;20.900;2022-11-20T04:39:30;-3.97;78.25
70676;DHT22;59069;52.242;20.900;2022-11-20T04:41:55;-3.97;78.36
70676;DHT22;59069;52.242;20.900;2022-11-20T04:44:41;-3.99;78.47
70676;DHT22;59069;52.242;20.900;2022-11-20T04:47:06;-4.00;78.34
70676;DHT22;59069;52.242;20.900;2022-11-20T04:49:32;-4.00;78.45
70676;DHT22;59069;52.242;20.900;2022-11-20T04:51:58;-4.03;78.59
70676;DHT22;59069;52.242;20.900;2022-11-20T04:54:24;-4.09;78.83
70676;DHT22;59069;52.242;20.900;2022-11-20T04:56:50;-4.10;78.88
70676;DHT22;59069;52.242;20.900;2022-11-20T04:59:15;-4.13;78.91
70676;DHT22;59069;52.242;20.900;2022-11-20T05:01:41;-4.16;78.92
70676;DHT22;59069;52.242;20.900;2022-11-20T05:04:06;-4.11;78.96
70676;DHT22;59069;52.242;20.900;2022-11-20T05:06:32;-4.16;78.98
70676;DHT22;59069;52.242;20.900;2022-11-20T05:08:58;-4.14;79.00
70676;DHT22;59069;52.242;20.900;2022-11-20T05:11:23;-4.17;79.03
70676;DHT22;59069;52.242;20.900;2022-11-20T05:13:50;-4.20;79.00
70676;DHT22;59069;52.242;20.900;2022-11-20T05:16:21;-4.20;79.07
70676;DHT22;59069;52.242;20.900;2022-11-20T05:18:47;-4.20;79.05
70676;DHT22;59069;52.242;20.900;2022-11-20T05:21:13;-4.21;79.04
70676;DHT22;59069;52.242;20.900;2022-11-20T05:23:39;-4.26;79.14
70676;DHT22;59069;52.242;20.900;2022-11-20T05:26:06;-4.31;79.23
70676;DHT22;59069;52.242;20.900;2022-11-20T05:28:32;-4.34;79.39
70676;DHT22;59069;52.242;20.900;2022-11-20T05:31:13;-4.37;79.42
70676;DHT22;59069;52.242;20.900;2022-11-20T05:33:43;-4.38;79.51
70676;DHT22;59069;52.242;20.900;2022-11-20T05:36:10;-4.43;79.75
70676;DHT22;59069;52.242;20.900;2022-11-20T05:38:36;-4.47;79.76
70676;DHT22;59069;52.242;20.900;2022-11-20T05:41:12;-4.48;79.84
70676;DHT22;59069;52.242;20.900;2022-11-20T05:43:40;-4.50;79.83
70676;DHT22;59069;52.242;20.900;2022-11-20T05:46:07;-4.55;79.79
70676;DHT22;59069;52.242;20.900;2022-11-20T05:48:34;-4.54;79.75
70676;DHT22;59069;52.242;20.900;2022-11-20T05:51:01;-4.55;79.91
70676;DHT22;59069;52.242;20.900;2022-11-20T05:53:28;-4.60;79.99
70676;DHT22;59069;52.242;20.900;2022-11-20T05:55:58;-4.64;80.12
70676;DHT22;59069;52.242;20.900;2022-11-20T05:58:24;-4.65;80.12
70676;DHT22;59069;52.242;20.900;2022-11-20T06:00:49;-4.65;80.30
70676;DHT22;59069;52.242;20.900;2022-11-20T06:03:15;-4.65;80.34
70676;DHT22;59069;52.242;20.900;2022-11-20T06:05:40;-4.67;80.41
70676;DHT22;59069;52.242;20.900;2022-11-20T06:08:06;-4.68;80.51
70676;DHT22;59069;52.242;20.900;2022-11-20T06:10:31;-4.67;80.50
70676;DHT22;59069;52.242;20.900;2022-11-20T06:12:57;-4.68;80.50
70676;DHT22;59069;52.242;20.900;2022-11-20T06:15:23;-4.67;80.50
70676;DHT22;59069;52.242;20.900;2022-11-20T06:17:54;-4.69;80.48
70676;DHT22;59069;52.242;20.900;2022-11-20T06:20:23;-4.74;80.58
70676;DHT22;59069;52.242;20.900;2022-11-20T06:22:48;-4.74;80.58
70676;DHT22;59069;52.242;20.900;2022-11-20T06:25:14;-4.77;80.74
70676;DHT22;59069;52.242;20.900;2022-11-20T06:27:39;-4.77;80.83
70676;DHT22;59069;52.242;20.900;2022-11-20T06:30:05;-4.78;80.94
70676;DHT22;59069;52.242;20.900;2022-11-20T06:32:32;-4.78;80.93
70676;DHT22;59069;52.242;20.900;2022-11-20T06:34:58;-4.74;81.00
70676;DHT22;59069;52.242;20.900;2022-11-20T06:37:23;-4.69;81.04
70676;DHT22;59069;52.242;20.900;2022-11-20T06:39:49;-4.67;80.98
70676;DHT22;59069;52.242;20.900;2022-11-20T06:42:14;-4.67;80.98
70676;DHT22;59069;52.242;20.900;2022-11-20T06:44:40;-4.62;81.01
70676;DHT22;59069;52.242;20.900;2022-11-20T06:47:05;-4.61;80.95
70676;DHT22;59069;52.242;20.900;2022-11-20T06:49:30;-4.55;80.94
70676;DHT22;59069;52.242;20.900;2022-11-20T06:51:56;-4.54;80.91
70676;DHT22;59069;52.242;20.900;2022-11-20T06:54:21;-4.54;80.78
70676;DHT22;59069;52.242;20.900;2022-11-20T06:56:47;-4.53;80.84
70676;DHT22;59069;52.242;20.900;2022-11-20T06:59:13;-4.50;80.84
70676;DHT22;59069;52.242;20.900;2022-11-20T07:01:38;-4.46;80.69
70676;DHT22;59069;52.242;20.900;2022-11-20T07:04:04;-4.44;80.59
70676;DHT22;59069;52.242;20.900;2022-11-20T07:06:29;-4.44;80.48
70676;DHT22;59069;52.242;20.900;2022-11-20T07:08:55;-4.44;80.66
70676;DHT22;59069;52.242;20.900;2022-11-20T07:11:20;-4.40;80.67
70676;DHT22;59069;52.242;20.900;2022-11-20T07:13:46;-4.38;80.62
70676;DHT22;59069;52.242;20.900;2022-11-20T07:16:11;-4.34;80.44
70676;DHT22;59069;52.242;20.900;2022-11-20T07:18:37;-4.30;80.29
70676;DHT22;59069;52.242;20.900;2022-11-20T07:21:03;-4.30;80.10
70676;DHT22;59069;52.242;20.900;2022-11-20T07:23:30;-4.27;80.14
70676;DHT22;59069;52.242;20.900;2022-11-20T07:25:55;-4.24;80.03
70676;DHT22;59069;52.242;20.900;2022-11-20T07:28:21;-4.21;79.97
70676;DHT22;59069;52.242;20.900;2022-11-20T07:30:53;-4.16;79.97
70676;DHT22;59069;52.242;20.900;2022-11-20T07:33:19;-4.13;79.88
70676;DHT22;59069;52.242;20.900;2022-11-20T07:35:44;-4.09;79.91
70676;DHT22;59069;52.242;20.900;2022-11-20T07:38:10;-4.09;79.85
70676;DHT22;59069;52.242;20.900;2022-11-20T07:40:35;-4.05;79.86
70676;DHT22;59069;52.242;20.900;2022-11-20T07:43:01;-3.96;79.73
70676;DHT22;59069;52.242;20.900;2022-11-20T07:45:26;-3.92;79.66
70676;DHT22;59069;52.242;20.900;2022-11-20T07:47:52;-3.85;79.63
70676;DHT22;59069;52.242;20.900;2022-11-20T07:50:18;-3.78;79.67
70676;DHT22;59069;52.242;20.900;2022-11-20T07:52:44;-3.71;79.63
70676;DHT22;59069;52.242;20.900;2022-11-20T07:55:10;-3.68;79.36
70676;DHT22;59069;52.242;20.900;2022-11-20T07:57:35;-3.64;79.32
70676;DHT22;59069;52.242;20.900;2022-11-20T08:00:02;-3.58;79.19
70676;DHT22;59069;52.242;20.900;2022-11-20T08:02:28;-3.52;79.21
70676;DHT22;59069;52.242;20.900;2022-11-20T08:04:54;-3.44;78.95
70676;DHT22;59069;52.242;20.900;2022-11-20T08:07:19;-3.37;78.96
70676;DHT22;59069;52.242;20.900;2022-11-20T08:09:45;-3.27;79.05
70676;DHT22;59069;52.242;20.900;2022-11-20T08:12:18;-3.17;78.84
70676;DHT22;59069;52.242;20.900;2022-11-20T08:15:03;-3.07;78.65
70676;DHT22;59069;52.242;20.900;2022-11-20T08:17:29;-2.94;78.90
70676;DHT22;59069;52.242;20.900;2022-11-20T08:19:54;-2.76;79.14
70676;DHT22;59069;52.242;20.900;2022-11-20T08:22:20;-2.55;78.92
70676;DHT22;59069;52.242;20.900;2022-11-20T08:24:46;-2.32;79.14
70676;DHT22;59069;52.242;20.900;2022-11-20T08:27:11;-2.07;79.39
70676;DHT22;59069;52.242;20.900;2022-11-20T08:29:37;-1.86;78.60
70676;DHT22;59069;52.242;20.900;2022-11-20T08:32:02;-1.63;78.48
70676;DHT22;59069;52.242;20.900;2022-11-20T08:34:28;-1.45;78.30
70676;DHT22;59069;52.242;20.900;2022-11-20T08:36:53;-1.32;77.00
70676;DHT22;59069;52.242;20.900;2022-11-20T08:39:19;-1.19;76.86
70676;DHT22;59069;52.242;20.900;2022-11-20T08:41:44;-1.06;77.23
70676;DHT22;59069;52.242;20.900;2022-11-20T08:44:09;-0.85;78.68
70676;DHT22;59069;52.242;20.900;2022-11-20T08:46:40;-0.56;79.88
70676;DHT22;59069;52.242;20.900;2022-11-20T08:49:08;-0.40;76.14
70676;DHT22;59069;52.242;20.900;2022-11-20T08:51:34;-0.23;75.84
70676;DHT22;59069;52.242;20.900;2022-11-20T08:54:00;-0.10;73.06
70676;DHT22;59069;52.242;20.900;2022-11-20T08:56:25;0.08;75.09
70676;DHT22;59069;52.242;20.900;2022-11-20T08:58:51;0.41;79.43
70676;DHT22;59069;52.242;20.900;2022-11-20T09:01:21;0.72;72.10
70676;DHT22;59069;52.242;20.900;2022-11-20T09:03:47;1.01;75.61
70676;DHT22;59069;52.242;20.900;2022-11-20T09:06:13;1.34;73.56
70676;DHT22;59069;52.242;20.900;2022-11-20T09:08:39;1.66;75.19
70676;DHT22;59069;52.242;20.900;2022-11-20T09:11:05;2.02;77.03
70676;DHT22;59069;52.242;20.900;2022-11-20T09:13:32;2.57;79.72
70676;DHT22;59069;52.242;20.900;2022-11-20T09:16:06;3.30;83.45
70676;DHT22;59069;52.242;20.900;2022-11-20T09:18:33;3.94;76.54
70676;DHT22;59069;52.242;20.900;2022-11-20T09:21:00;4.22;57.74
70676;DHT22;59069;52.242;20.900;2022-11-20T09:23:27;4.19;53.58
70676;DHT22;59069;52.242;20.900;2022-11-20T09:25:53;4.24;59.22
70676;DHT22;59069;52.242;20.900;2022-11-20T09:28:21;4.29;62.31
70676;DHT22;59069;52.242;20.900;2022-11-20T09:30:46;4.49;59.79
70676;DHT22;59069;52.242;20.900;2022-11-20T09:33:12;4.77;59.68
70676;DHT22;59069;52.242;20.900;2022-11-20T09:35:37;4.91;57.51
70676;DHT22;59069;52.242;20.900;2022-11-20T09:38:06;5.23;58.32
70676;DHT22;59069;52.242;20.900;2022-11-20T09:40:32;5.54;54.19
70676;DHT22;59069;52.242;20.900;2022-11-20T09:54:08;7.74;48.65
70676;DHT22;59069;52.242;20.900;2022-11-20T09:56:40;8.28;48.90
70676;DHT22;59069;52.242;20.900;2022-11-20T09:59:16;8.67;50.31
70676;DHT22;59069;52.242;20.900;2022-11-20T10:01:43;9.08;46.25
70676;DHT22;59069;52.242;20.900;2022-11-20T10:04:16;9.14;39.48
70676;DHT22;59069;52.242;20.900;2022-11-20T10:06:49;8.90;34.87
70676;DHT22;59069;52.242;20.900;2022-11-20T10:09:27;8.73;42.97
70676;DHT22;59069;52.242;20.900;2022-11-20T10:14:44;8.34;35.04
70676;DHT22;59069;52.242;20.900;2022-11-20T10:20:12;6.89;37.96
70676;DHT22;59069;52.242;20.900;2022-11-20T10:22:49;6.07;41.81
70676;DHT22;59069;52.242;20.900;2022-11-20T10:25:19;5.42;42.71
70676;DHT22;59069;52.242;20.900;2022-11-20T10:30:21;5.75;65.34
70676;DHT22;59069;52.242;20.900;2022-11-20T10:32:59;6.33;54.72
70676;DHT22;59069;52.242;20.900;2022-11-20T10:35:32;6.10;36.73
70676;DHT22;59069;52.242;20.900;2022-11-20T10:38:01;5.44;38.46
70676;DHT22;59069;52.242;20.900;2022-11-20T10:40:35;4.56;42.66
70676;DHT22;59069;52.242;20.900;2022-11-20T10:43:07;3.81;45.43
70676;DHT22;59069;52.242;20.900;2022-11-20T10:45:50;3.26;48.33
70676;DHT22;59069;52.242;20.900;2022-11-20T10:48:24;2.92;49.80
70676;DHT22;59069;52.242;20.900;2022-11-20T10:50:56;2.61;50.26
70676;DHT22;59069;52.242;20.900;2022-11-20T10:53:31;2.34;52.11
70676;DHT22;59069;52.242;20.900;2022-11-20T10:56:09;2.16;53.39
70676;DHT22;59069;52.242;20.900;2022-11-20T11:01:19;2.02;55.36
70676;DHT22;59069;52.242;20.900;2022-11-20T11:03:48;1.98;55.49
70676;DHT22;59069;52.242;20.900;2022-11-20T11:06:37;1.87;56.25
70676;DHT22;59069;52.242;20.900;2022-11-20T11:09:11;1.76;56.82
70676;DHT22;59069;52.242;20.900;2022-11-20T11:11:39;1.71;57.69
70676;DHT22;59069;52.242;20.900;2022-11-20T11:16:31;1.61;58.26
70676;DHT22;59069;52.242;20.900;2022-11-20T11:19:10;1.52;59.14
70676;DHT22;59069;52.242;20.900;2022-11-20T11:21:37;1.52;59.79
70676;DHT22;59069;52.242;20.900;2022-11-20T11:26:56;1.47;59.82
70676;DHT22;59069;52.242;20.900;2022-11-20T11:29:22;1.42;60.03
70676;DHT22;59069;52.242;20.900;2022-11-20T11:31:49;1.35;60.73
70676;DHT22;59069;52.242;20.900;2022-11-20T11:34:16;1.40;61.05
70676;DHT22;59069;52.242;20.900;2022-11-20T11:36:52;1.41;61.31
70676;DHT22;59069;52.242;20.900;2022-11-20T11:39:20;1.35;61.42
70676;DHT22;59069;52.242;20.900;2022-11-20T11:41:47;1.32;61.38
70676;DHT22;59069;52.242;20.900;2022-11-20T11:44:32;1.24;61.35
70676;DHT22;59069;52.242;20.900;2022-11-20T11:47:27;1.13;62.06
70676;DHT22;59069;52.242;20.900;2022-11-20T11:55:44;1.03;62.97
70676;DHT22;59069;52.242;20.900;2022-11-20T11:58:46;1.05;63.28
70676;DHT22;59069;52.242;20.900;2022-11-20T12:01:38;1.04;63.48
70676;DHT22;59069;52.242;20.900;2022-11-20T12:06:47;1.11;63.45
70676;DHT22;59069;52.242;20.900;2022-11-20T12:09:16;1.11;63.25
70676;DHT22;59069;52.242;20.900;2022-11-20T12:11:49;1.08;63.27
70676;DHT22;59069;52.242;20.900;2022-11-20T12:14:27;1.04;63.60
70676;DHT22;59069;52.242;20.900;2022-11-20T12:16:55;1.05;63.84
70676;DHT22;59069;52.242;20.900;2022-11-20T12:19:22;1.05;63.96
70676;DHT22;59069;52.242;20.900;2022-11-20T12:21:59;1.05;64.19
70676;DHT22;59069;52.242;20.900;2022-11-20T12:29:56;1.08;64.17
70676;DHT22;59069;52.242;20.900;2022-11-20T12:41:42;1.10;64.76
70676;DHT22;59069;52.242;20.900;2022-11-20T12:53:27;1.38;64.58
70676;DHT22;59069;52.242;20.900;2022-11-20T12:58:45;1.47;64.27
70676;DHT22;59069;52.242;20.900;2022-11-20T13:01:25;1.56;64.02
70676;DHT22;59069;52.242;20.900;2022-11-20T13:06:50;1.63;63.70
70676;DHT22;59069;52.242;20.900;2022-11-20T13:09:17;1.63;63.38
70676;DHT22;59069;52.242;20.900;2022-11-20T13:17:05;1.68;63.55
70676;DHT22;59069;52.242;20.900;2022-11-20T13:19:35;1.65;63.77
70676;DHT22;59069;52.242;20.900;2022-11-20T13:22:00;1.62;63.41
70676;DHT22;59069;52.242;20.900;2022-11-20T13:24:30;1.62;63.44
70676;DHT22;59069;52.242;20.900;2022-11-20T13:29:41;1.61;62.78
70676;DHT22;59069;52.242;20.900;2022-11-20T13:34:54;1.47;63.08
70676;DHT22;59069;52.242;20.900;2022-11-20T13:42:51;1.37;63.28
70676;DHT22;59069;52.242;20.900;2022-11-20T13:45:27;1.37;63.58
70676;DHT22;59069;52.242;20.900;2022-11-20T13:47:54;1.37;63.77
70676;DHT22;59069;52.242;20.900;2022-11-20T13:50:25;1.34;63.79
70676;DHT22;59069;52.242;20.900;2022-11-20T14:01:55;1.20;64.46
70676;DHT22;59069;52.242;20.900;2022-11-20T14:04:33;1.16;64.60
70676;DHT22;59069;52.242;20.900;2022-11-20T14:07:01;1.11;64.88
70676;DHT22;59069;52.242;20.900;2022-11-20T14:09:32;1.05;65.18
70676;DHT22;59069;52.242;20.900;2022-11-20T14:11:58;1.03;65.41
70676;DHT22;59069;52.242;20.900;2022-11-20T14:14:25;1.00;65.53
70676;DHT22;59069;52.242;20.900;2022-11-20T14:16:52;0.97;65.68
70676;DHT22;59069;52.242;20.900;2022-11-20T14:21:47;0.89;66.12
70676;DHT22;59069;52.242;20.900;2022-11-20T14:24:17;0.86;66.30
70676;DHT22;59069;52.242;20.900;2022-11-20T14:26:44;0.86;66.50
70676;DHT22;59069;52.242;20.900;2022-11-20T14:29:18;0.81;66.66
70676;DHT22;59069;52.242;20.900;2022-11-20T14:31:45;0.77;66.77
70676;DHT22;59069;52.242;20.900;2022-11-20T14:34:22;0.76;66.95
70676;DHT22;59069;52.242;20.900;2022-11-20T14:36:48;0.73;67.08
70676;DHT22;59069;52.242;20.900;2022-11-20T14:39:20;0.72;67.28
70676;DHT22;59069;52.242;20.900;2022-11-20T14:41:51;0.69;67.50
70676;DHT22;59069;52.242;20.900;2022-11-20T14:44:17;0.70;67.70
70676;DHT22;59069;52.242;20.900;2022-11-20T14:46:43;0.72;67.70
70676;DHT22;59069;52.242;20.900;2022-11-20T14:49:10;0.70;67.85
70676;DHT22;59069;52.242;20.900;2022-11-20T14:51:38;0.67;67.99
70676;DHT22;59069;52.242;20.900;2022-11-20T14:54:20;0.69;68.13
70676;DHT22;59069;52.242;20.900;2022-11-20T14:56:58;0.70;68.46
70676;DHT22;59069;52.242;20.900;2022-11-20T14:59:29;0.72;68.76
70676;DHT22;59069;52.242;20.900;2022-11-20T15:01:59;0.73;68.91
70676;DHT22;59069;52.242;20.900;2022-11-20T15:04:25;0.75;69.39
70676;DHT22;59069;52.242;20.900;2022-11-20T15:06:53;0.72;69.51
70676;DHT22;59069;52.242;20.900;2022-11-20T15:09:19;0.75;69.68
70676;DHT22;59069;52.242;20.900;2022-11-20T15:11:55;0.67;70.04
70676;DHT22;59069;52.242;20.900;2022-11-20T15:14:22;0.65;70.28
70676;DHT22;59069;52.242;20.900;2022-11-20T15:16:49;0.62;70.56
70676;DHT22;59069;52.242;20.900;2022-11-20T15:19:21;0.58;70.75
70676;DHT22;59069;52.242;20.900;2022-11-20T15:21:48;0.53;71.10
70676;DHT22;59069;52.242;20.900;2022-11-20T15:24:13;0.48;71.26
70676;DHT22;59069;52.242;20.900;2022-11-20T15:26:39;0.39;71.59
70676;DHT22;59069;52.242;20.900;2022-11-20T15:29:11;0.33;71.95
70676;DHT22;59069;52.242;20.900;2022-11-20T15:31:37;0.28;72.16
70676;DHT22;59069;52.242;20.900;2022-11-20T15:34:13;0.21;72.42
70676;DHT22;59069;52.242;20.900;2022-11-20T15:36:39;0.11;72.64
70676;DHT22;59069;52.242;20.900;2022-11-20T15:39:05;0.02;72.91
70676;DHT22;59069;52.242;20.900;2022-11-20T15:41:33;-0.05;73.14
70676;DHT22;59069;52.242;20.900;2022-11-20T15:43:59;-0.10;73.42
70676;DHT22;59069;52.242;20.900;2022-11-20T15:46:29;-0.17;73.67
70676;DHT22;59069;52.242;20.900;2022-11-20T15:48:56;-0.20;73.86
70676;DHT22;59069;52.242;20.900;2022-11-20T15:51:27;-0.32;74.12
70676;DHT22;59069;52.242;20.900;2022-11-20T15:53:55;-0.37;74.34
70676;DHT22;59069;52.242;20.900;2022-11-20T15:56:21;-0.47;74.74
70676;DHT22;59069;52.242;20.900;2022-11-20T15:58:47;-0.50;75.05
70676;DHT22;59069;52.242;20.900;2022-11-20T16:01:14;-0.58;75.26
70676;DHT22;59069;52.242;20.900;2022-11-20T16:03:40;-0.63;75.56
70676;DHT22;59069;52.242;20.900;2022-11-20T16:06:06;-0.67;75.79
70676;DHT22;59069;52.242;20.900;2022-11-20T16:08:32;-0.71;76.01
70676;DHT22;59069;52.242;20.900;2022-11-20T16:10:57;-0.74;76.34
70676;DHT22;59069;52.242;20.900;2022-11-20T16:13:23;-0.80;76.49
70676;DHT22;59069;52.242;20.900;2022-11-20T16:16:13;-0.80;76.81
70676;DHT22;59069;52.242;20.900;2022-11-20T16:18:43;-0.87;76.84
70676;DHT22;59069;52.242;20.900;2022-11-20T16:21:11;-0.88;76.96
70676;DHT22;59069;52.242;20.900;2022-11-20T16:23:37;-0.88;77.16
70676;DHT22;59069;52.242;20.900;2022-11-20T16:26:15;-0.92;77.36
70676;DHT22;59069;52.242;20.900;2022-11-20T16:28:42;-0.97;77.62
70676;DHT22;59069;52.242;20.900;2022-11-20T16:31:12;-1.02;77.81
70676;DHT22;59069;52.242;20.900;2022-11-20T16:33:38;-1.09;77.91
70676;DHT22;59069;52.242;20.900;2022-11-20T16:36:24;-1.12;78.03
70676;DHT22;59069;52.242;20.900;2022-11-20T16:38:57;-1.18;78.19
70676;DHT22;59069;52.242;20.900;2022-11-20T16:41:25;-1.22;78.63
70676;DHT22;59069;52.242;20.900;2022-11-20T16:43:55;-1.25;78.73
70676;DHT22;59069;52.242;20.900;2022-11-20T16:46:26;-1.31;78.95
70676;DHT22;59069;52.242;20.900;2022-11-20T16:48:53;-1.34;79.20
70676;DHT22;59069;52.242;20.900;2022-11-20T16:51:19;-1.36;79.43
70676;DHT22;59069;52.242;20.900;2022-11-20T16:53:45;-1.40;79.61
70676;DHT22;59069;52.242;20.900;2022-11-20T16:56:16;-1.42;79.76
70676;DHT22;59069;52.242;20.900;2022-11-20T16:58:43;-1.46;79.98
70676;DHT22;59069;52.242;20.900;2022-11-20T17:01:10;-1.46;80.14
70676;DHT22;59069;52.242;20.900;2022-11-20T17:03:37;-1.50;80.40
70676;DHT22;59069;52.242;20.900;2022-11-20T17:06:16;-1.49;80.74
70676;DHT22;59069;52.242;20.900;2022-11-20T17:08:43;-1.50;80.82
70676;DHT22;59069;52.242;20.900;2022-11-20T17:11:11;-1.52;80.95